sensor_id;sensor_type;location;lat;lon;timestamp;P1;durP1;ratioP1;P2;durP2;ratioP2
59846;SDS011;45728;48.788;2.302;2023-09-18T00:00:44;5.32;;;2.92;;
59846;SDS011;45728;48.788;2.302;2023-09-18T00:03:10;3.67;;;2.53;;
59846;SDS011;45728;48.788;2.302;2023-09-18T00:05:36;3.63;;;3.08;;
59846;SDS011;45728;48.788;2.302;2023-09-18T00:08:02;6.35;;;3.33;;
59846;SDS011;45728;48.788;2.302;2023-09-18T00:10:29;7.82;;;3.90;;
59846;SDS011;45728;48.788;2.302;2023-09-18T00:12:56;6.78;;;3.75;;
59846;SDS011;45728;48.788;2.302;2023-09-18T00:15:22;4.80;;;3.40;;
59846;SDS011;45728;48.788;2.302;2023-09-18T00:17:49;5.80;;;3.53;;
59846;SDS011;45728;48.788;2.302;2023-09-18T00:20:15;9.00;;;3.53;;
59846;SDS011;45728;48.788;2.302;2023-09-18T00:22:44;8.10;;;4.05;;
59846;SDS011;45728;48.788;2.302;2023-09-18T00:25:10;4.70;;;3.20;;
59846;SDS011;45728;48.788;2.302;2023-09-18T00:27:36;5.05;;;3.65;;
59846;SDS011;45728;48.788;2.302;2023-09-18T00:30:03;6.20;;;3.42;;
59846;SDS011;45728;48.788;2.302;2023-09-18T00:32:30;6.90;;;3.28;;
59846;SDS011;45728;48.788;2.302;2023-09-18T00:34:56;8.20;;;3.38;;
59846;SDS011;45728;48.788;2.302;2023-09-18T00:37:22;5.80;;;3.15;;
59846;SDS011;45728;48.788;2.302;2023-09-18T00:39:49;4.70;;;2.90;;
59846;SDS011;45728;48.788;2.302;2023-09-18T00:42:15;10.43;;;2.97;;
59846;SDS011;45728;48.788;2.302;2023-09-18T00:44:43;6.90;;;3.13;;
59846;SDS011;45728;48.788;2.302;2023-09-18T00:47:09;7.40;;;3.13;;
59846;SDS011;45728;48.788;2.302;2023-09-18T00:49:36;7.13;;;3.22;;
59846;SDS011;45728;48.788;2.302;2023-09-18T00:52:06;4.57;;;2.97;;
59846;SDS011;45728;48.788;2.302;2023-09-18T00:54:33;8.65;;;3.00;;
59846;SDS011;45728;48.788;2.302;2023-09-18T00:57:01;5.82;;;2.92;;
59846;SDS011;45728;48.788;2.302;2023-09-18T00:59:28;4.88;;;2.92;;
59846;SDS011;45728;48.788;2.302;2023-09-18T01:01:55;5.00;;;2.55;;
59846;SDS011;45728;48.788;2.302;2023-09-18T01:04:21;7.13;;;3.00;;
59846;SDS011;45728;48.788;2.302;2023-09-18T01:06:48;3.33;;;2.40;;
59846;SDS011;45728;48.788;2.302;2023-09-18T01:09:16;4.90;;;2.50;;
59846;SDS011;45728;48.788;2.302;2023-09-18T01:14:44;3.20;;;2.25;;
59846;SDS011;45728;48.788;2.302;2023-09-18T01:17:19;4.22;;;2.50;;
59846;SDS011;45728;48.788;2.302;2023-09-18T01:19:46;6.50;;;2.50;;
59846;SDS011;45728;48.788;2.302;2023-09-18T01:22:31;4.43;;;2.60;;
59846;SDS011;45728;48.788;2.302;2023-09-18T01:24:57;6.53;;;2.67;;
59846;SDS011;45728;48.788;2.302;2023-09-18T01:27:24;4.85;;;2.33;;
59846;SDS011;45728;48.788;2.302;2023-09-18T01:29:50;3.92;;;2.15;;
59846;SDS011;45728;48.788;2.302;2023-09-18T01:32:16;7.30;;;2.85;;
59846;SDS011;45728;48.788;2.302;2023-09-18T01:34:44;4.75;;;2.35;;
59846;SDS011;45728;48.788;2.302;2023-09-18T01:37:13;3.53;;;1.90;;
59846;SDS011;45728;48.788;2.302;2023-09-18T01:39:42;3.55;;;2.33;;
59846;SDS011;45728;48.788;2.302;2023-09-18T01:42:11;5.78;;;2.30;;
59846;SDS011;45728;48.788;2.302;2023-09-18T01:44:37;4.90;;;2.33;;
59846;SDS011;45728;48.788;2.302;2023-09-18T01:47:04;3.55;;;1.90;;
59846;SDS011;45728;48.788;2.302;2023-09-18T01:49:33;4.63;;;2.30;;
59846;SDS011;45728;48.788;2.302;2023-09-18T01:52:00;4.90;;;2.38;;
59846;SDS011;45728;48.788;2.302;2023-09-18T01:54:26;6.10;;;2.60;;
59846;SDS011;45728;48.788;2.302;2023-09-18T01:56:53;4.20;;;2.15;;
59846;SDS011;45728;48.788;2.302;2023-09-18T01:59:19;3.90;;;2.28;;
59846;SDS011;45728;48.788;2.302;2023-09-18T02:01:46;4.28;;;2.30;;
59846;SDS011;45728;48.788;2.302;2023-09-18T02:04:12;5.22;;;2.63;;
59846;SDS011;45728;48.788;2.302;2023-09-18T02:06:38;5.18;;;2.88;;
59846;SDS011;45728;48.788;2.302;2023-09-18T02:09:05;4.25;;;2.63;;
59846;SDS011;45728;48.788;2.302;2023-09-18T02:11:41;3.22;;;2.35;;
59846;SDS011;45728;48.788;2.302;2023-09-18T02:14:08;4.35;;;2.55;;
59846;SDS011;45728;48.788;2.302;2023-09-18T02:16:36;4.07;;;2.72;;
59846;SDS011;45728;48.788;2.302;2023-09-18T02:19:03;3.45;;;2.58;;
59846;SDS011;45728;48.788;2.302;2023-09-18T02:21:30;4.97;;;2.70;;
59846;SDS011;45728;48.788;2.302;2023-09-18T02:23:56;6.55;;;2.72;;
59846;SDS011;45728;48.788;2.302;2023-09-18T02:26:23;4.03;;;2.75;;
59846;SDS011;45728;48.788;2.302;2023-09-18T02:28:53;4.53;;;2.90;;
59846;SDS011;45728;48.788;2.302;2023-09-18T02:31:20;5.05;;;2.78;;
59846;SDS011;45728;48.788;2.302;2023-09-18T02:33:47;3.15;;;2.72;;
59846;SDS011;45728;48.788;2.302;2023-09-18T02:36:13;4.07;;;3.05;;
59846;SDS011;45728;48.788;2.302;2023-09-18T02:38:39;6.47;;;3.00;;
59846;SDS011;45728;48.788;2.302;2023-09-18T02:41:05;6.40;;;3.30;;
59846;SDS011;45728;48.788;2.302;2023-09-18T02:43:31;4.40;;;3.10;;
59846;SDS011;45728;48.788;2.302;2023-09-18T02:45:57;5.80;;;2.70;;
59846;SDS011;45728;48.788;2.302;2023-09-18T02:48:23;6.22;;;3.30;;
59846;SDS011;45728;48.788;2.302;2023-09-18T02:50:49;5.32;;;3.22;;
59846;SDS011;45728;48.788;2.302;2023-09-18T02:53:16;6.18;;;3.22;;
59846;SDS011;45728;48.788;2.302;2023-09-18T02:55:48;5.25;;;3.63;;
59846;SDS011;45728;48.788;2.302;2023-09-18T02:58:17;5.45;;;3.20;;
59846;SDS011;45728;48.788;2.302;2023-09-18T03:00:45;4.00;;;3.60;;
59846;SDS011;45728;48.788;2.302;2023-09-18T03:03:12;5.32;;;3.33;;
59846;SDS011;45728;48.788;2.302;2023-09-18T03:05:39;3.70;;;3.30;;
59846;SDS011;45728;48.788;2.302;2023-09-18T03:08:05;3.85;;;2.95;;
59846;SDS011;45728;48.788;2.302;2023-09-18T03:10:35;3.40;;;2.72;;
59846;SDS011;45728;48.788;2.302;2023-09-18T03:13:03;4.80;;;3.10;;
59846;SDS011;45728;48.788;2.302;2023-09-18T03:15:30;4.90;;;3.30;;
59846;SDS011;45728;48.788;2.302;2023-09-18T03:17:57;4.53;;;3.42;;
59846;SDS011;45728;48.788;2.302;2023-09-18T03:20:24;4.10;;;2.95;;
59846;SDS011;45728;48.788;2.302;2023-09-18T03:22:52;4.43;;;3.30;;
59846;SDS011;45728;48.788;2.302;2023-09-18T03:25:25;7.75;;;3.10;;
59846;SDS011;45728;48.788;2.302;2023-09-18T03:27:52;6.13;;;3.15;;
59846;SDS011;45728;48.788;2.302;2023-09-18T03:30:20;4.90;;;3.25;;
59846;SDS011;45728;48.788;2.302;2023-09-18T03:32:47;3.80;;;2.80;;
59846;SDS011;45728;48.788;2.302;2023-09-18T03:35:16;8.10;;;3.20;;
59846;SDS011;45728;48.788;2.302;2023-09-18T03:37:44;5.95;;;3.00;;
59846;SDS011;45728;48.788;2.302;2023-09-18T03:40:14;8.65;;;3.17;;
59846;SDS011;45728;48.788;2.302;2023-09-18T03:42:41;6.18;;;2.97;;
59846;SDS011;45728;48.788;2.302;2023-09-18T03:45:08;3.70;;;3.00;;
59846;SDS011;45728;48.788;2.302;2023-09-18T03:47:34;5.32;;;3.03;;
59846;SDS011;45728;48.788;2.302;2023-09-18T03:50:02;5.28;;;3.35;;
59846;SDS011;45728;48.788;2.302;2023-09-18T03:52:28;4.05;;;2.80;;
59846;SDS011;45728;48.788;2.302;2023-09-18T03:54:54;5.82;;;3.35;;
59846;SDS011;45728;48.788;2.302;2023-09-18T03:57:20;8.63;;;3.15;;
59846;SDS011;45728;48.788;2.302;2023-09-18T03:59:47;6.15;;;2.97;;
59846;SDS011;45728;48.788;2.302;2023-09-18T04:02:13;3.33;;;2.90;;
59846;SDS011;45728;48.788;2.302;2023-09-18T04:04:39;7.68;;;3.40;;
59846;SDS011;45728;48.788;2.302;2023-09-18T04:07:05;5.72;;;3.40;;
59846;SDS011;45728;48.788;2.302;2023-09-18T04:09:32;7.60;;;3.38;;
59846;SDS011;45728;48.788;2.302;2023-09-18T04:12:03;4.50;;;2.72;;
59846;SDS011;45728;48.788;2.302;2023-09-18T04:14:31;5.43;;;3.20;;
59846;SDS011;45728;48.788;2.302;2023-09-18T04:16:57;4.47;;;2.85;;
59846;SDS011;45728;48.788;2.302;2023-09-18T04:19:23;4.53;;;3.38;;
59846;SDS011;45728;48.788;2.302;2023-09-18T04:21:49;6.13;;;3.22;;
59846;SDS011;45728;48.788;2.302;2023-09-18T04:24:15;6.55;;;3.00;;
59846;SDS011;45728;48.788;2.302;2023-09-18T04:26:42;9.82;;;3.85;;
59846;SDS011;45728;48.788;2.302;2023-09-18T04:29:08;8.30;;;3.15;;
59846;SDS011;45728;48.788;2.302;2023-09-18T04:31:34;6.85;;;3.25;;
59846;SDS011;45728;48.788;2.302;2023-09-18T04:34:00;5.40;;;3.17;;
59846;SDS011;45728;48.788;2.302;2023-09-18T04:36:27;8.85;;;3.50;;
59846;SDS011;45728;48.788;2.302;2023-09-18T04:38:53;5.25;;;3.35;;
59846;SDS011;45728;48.788;2.302;2023-09-18T04:41:19;4.15;;;3.30;;
59846;SDS011;45728;48.788;2.302;2023-09-18T04:43:45;4.22;;;3.30;;
59846;SDS011;45728;48.788;2.302;2023-09-18T04:46:11;5.97;;;3.40;;
59846;SDS011;45728;48.788;2.302;2023-09-18T04:48:38;6.53;;;3.30;;
59846;SDS011;45728;48.788;2.302;2023-09-18T04:51:04;6.47;;;3.88;;
59846;SDS011;45728;48.788;2.302;2023-09-18T04:53:30;6.32;;;3.30;;
59846;SDS011;45728;48.788;2.302;2023-09-18T04:55:57;5.10;;;3.42;;
59846;SDS011;45728;48.788;2.302;2023-09-18T04:58:24;6.47;;;3.47;;
59846;SDS011;45728;48.788;2.302;2023-09-18T05:00:53;8.07;;;3.42;;
59846;SDS011;45728;48.788;2.302;2023-09-18T05:03:20;7.05;;;3.28;;
59846;SDS011;45728;48.788;2.302;2023-09-18T05:05:46;6.63;;;3.40;;
59846;SDS011;45728;48.788;2.302;2023-09-18T05:08:12;5.57;;;3.63;;
59846;SDS011;45728;48.788;2.302;2023-09-18T05:10:39;8.70;;;3.47;;
59846;SDS011;45728;48.788;2.302;2023-09-18T05:13:05;4.15;;;3.22;;
59846;SDS011;45728;48.788;2.302;2023-09-18T05:15:32;6.22;;;3.50;;
59846;SDS011;45728;48.788;2.302;2023-09-18T05:17:59;9.98;;;3.88;;
59846;SDS011;45728;48.788;2.302;2023-09-18T05:20:26;6.32;;;3.35;;
59846;SDS011;45728;48.788;2.302;2023-09-18T05:22:55;6.07;;;3.33;;
59846;SDS011;45728;48.788;2.302;2023-09-18T05:25:22;5.85;;;3.92;;
59846;SDS011;45728;48.788;2.302;2023-09-18T05:27:50;6.83;;;3.83;;
59846;SDS011;45728;48.788;2.302;2023-09-18T05:30:23;5.53;;;3.60;;
59846;SDS011;45728;48.788;2.302;2023-09-18T05:32:56;8.43;;;3.95;;
59846;SDS011;45728;48.788;2.302;2023-09-18T05:37:49;8.43;;;3.97;;
59846;SDS011;45728;48.788;2.302;2023-09-18T05:40:20;5.20;;;3.95;;
59846;SDS011;45728;48.788;2.302;2023-09-18T05:42:46;8.20;;;4.22;;
59846;SDS011;45728;48.788;2.302;2023-09-18T05:45:13;8.15;;;4.18;;
59846;SDS011;45728;48.788;2.302;2023-09-18T05:47:40;11.63;;;4.63;;
59846;SDS011;45728;48.788;2.302;2023-09-18T05:50:08;6.65;;;3.85;;
59846;SDS011;45728;48.788;2.302;2023-09-18T05:52:35;11.00;;;4.22;;
59846;SDS011;45728;48.788;2.302;2023-09-18T05:55:02;7.80;;;4.30;;
59846;SDS011;45728;48.788;2.302;2023-09-18T05:57:28;6.80;;;4.05;;
59846;SDS011;45728;48.788;2.302;2023-09-18T05:59:55;5.47;;;4.15;;
59846;SDS011;45728;48.788;2.302;2023-09-18T06:02:21;10.20;;;4.70;;
59846;SDS011;45728;48.788;2.302;2023-09-18T06:04:48;8.10;;;4.80;;
59846;SDS011;45728;48.788;2.302;2023-09-18T06:07:14;8.25;;;4.55;;
59846;SDS011;45728;48.788;2.302;2023-09-18T06:09:40;9.23;;;4.60;;
59846;SDS011;45728;48.788;2.302;2023-09-18T06:12:07;11.52;;;4.70;;
59846;SDS011;45728;48.788;2.302;2023-09-18T06:14:35;9.48;;;4.93;;
59846;SDS011;45728;48.788;2.302;2023-09-18T06:17:03;9.45;;;4.50;;
59846;SDS011;45728;48.788;2.302;2023-09-18T06:19:30;7.85;;;5.13;;
59846;SDS011;45728;48.788;2.302;2023-09-18T06:21:56;9.50;;;4.82;;
59846;SDS011;45728;48.788;2.302;2023-09-18T06:24:22;10.05;;;5.10;;
59846;SDS011;45728;48.788;2.302;2023-09-18T06:26:48;9.05;;;5.38;;
59846;SDS011;45728;48.788;2.302;2023-09-18T06:29:14;8.20;;;5.10;;
59846;SDS011;45728;48.788;2.302;2023-09-18T06:31:40;10.90;;;5.85;;
59846;SDS011;45728;48.788;2.302;2023-09-18T06:34:06;11.27;;;6.25;;
59846;SDS011;45728;48.788;2.302;2023-09-18T06:36:32;11.23;;;5.85;;
59846;SDS011;45728;48.788;2.302;2023-09-18T06:38:58;10.80;;;5.63;;
59846;SDS011;45728;48.788;2.302;2023-09-18T06:41:24;7.78;;;5.38;;
59846;SDS011;45728;48.788;2.302;2023-09-18T06:43:50;10.63;;;5.65;;
59846;SDS011;45728;48.788;2.302;2023-09-18T06:46:16;8.25;;;6.40;;
59846;SDS011;45728;48.788;2.302;2023-09-18T06:48:42;10.73;;;5.85;;
59846;SDS011;45728;48.788;2.302;2023-09-18T06:51:11;13.30;;;5.80;;
59846;SDS011;45728;48.788;2.302;2023-09-18T06:53:37;12.25;;;5.82;;
59846;SDS011;45728;48.788;2.302;2023-09-18T06:56:03;10.63;;;5.82;;
59846;SDS011;45728;48.788;2.302;2023-09-18T06:58:30;11.88;;;5.90;;
59846;SDS011;45728;48.788;2.302;2023-09-18T07:00:56;8.88;;;6.07;;
59846;SDS011;45728;48.788;2.302;2023-09-18T07:03:23;7.93;;;6.10;;
59846;SDS011;45728;48.788;2.302;2023-09-18T07:05:49;12.93;;;6.15;;
59846;SDS011;45728;48.788;2.302;2023-09-18T07:08:15;11.13;;;6.30;;
59846;SDS011;45728;48.788;2.302;2023-09-18T07:10:45;8.27;;;6.00;;
59846;SDS011;45728;48.788;2.302;2023-09-18T07:13:11;9.77;;;6.35;;
59846;SDS011;45728;48.788;2.302;2023-09-18T07:15:37;8.25;;;5.93;;
59846;SDS011;45728;48.788;2.302;2023-09-18T07:18:03;9.23;;;6.40;;
59846;SDS011;45728;48.788;2.302;2023-09-18T07:20:29;8.65;;;5.53;;
59846;SDS011;45728;48.788;2.302;2023-09-18T07:22:56;12.02;;;6.00;;
59846;SDS011;45728;48.788;2.302;2023-09-18T07:25:22;9.90;;;5.55;;
59846;SDS011;45728;48.788;2.302;2023-09-18T07:27:48;10.70;;;5.82;;
59846;SDS011;45728;48.788;2.302;2023-09-18T07:30:14;12.23;;;6.68;;
59846;SDS011;45728;48.788;2.302;2023-09-18T07:32:42;9.90;;;6.07;;
59846;SDS011;45728;48.788;2.302;2023-09-18T07:35:11;11.07;;;6.05;;
59846;SDS011;45728;48.788;2.302;2023-09-18T07:37:39;9.90;;;5.75;;
59846;SDS011;45728;48.788;2.302;2023-09-18T07:40:05;11.57;;;6.00;;
59846;SDS011;45728;48.788;2.302;2023-09-18T07:42:32;13.60;;;6.15;;
59846;SDS011;45728;48.788;2.302;2023-09-18T07:44:59;8.38;;;5.70;;
59846;SDS011;45728;48.788;2.302;2023-09-18T07:47:25;9.98;;;6.00;;
59846;SDS011;45728;48.788;2.302;2023-09-18T07:49:51;14.07;;;6.07;;
59846;SDS011;45728;48.788;2.302;2023-09-18T07:52:19;8.40;;;5.05;;
59846;SDS011;45728;48.788;2.302;2023-09-18T07:54:45;8.20;;;5.82;;
59846;SDS011;45728;48.788;2.302;2023-09-18T07:57:11;10.30;;;5.95;;
59846;SDS011;45728;48.788;2.302;2023-09-18T07:59:39;11.80;;;5.45;;
59846;SDS011;45728;48.788;2.302;2023-09-18T08:02:06;8.35;;;4.78;;
59846;SDS011;45728;48.788;2.302;2023-09-18T08:04:34;13.10;;;5.10;;
59846;SDS011;45728;48.788;2.302;2023-09-18T08:07:00;9.93;;;5.13;;
59846;SDS011;45728;48.788;2.302;2023-09-18T08:09:26;10.82;;;4.70;;
59846;SDS011;45728;48.788;2.302;2023-09-18T08:11:55;9.10;;;5.03;;
59846;SDS011;45728;48.788;2.302;2023-09-18T08:14:22;15.98;;;6.05;;
59846;SDS011;45728;48.788;2.302;2023-09-18T08:16:48;10.27;;;4.43;;
59846;SDS011;45728;48.788;2.302;2023-09-18T08:19:22;8.68;;;4.65;;
59846;SDS011;45728;48.788;2.302;2023-09-18T08:21:49;8.10;;;4.43;;
59846;SDS011;45728;48.788;2.302;2023-09-18T08:24:15;7.65;;;4.25;;
59846;SDS011;45728;48.788;2.302;2023-09-18T08:26:41;8.32;;;4.20;;
59846;SDS011;45728;48.788;2.302;2023-09-18T08:29:07;6.88;;;3.63;;
59846;SDS011;45728;48.788;2.302;2023-09-18T08:31:34;9.15;;;3.90;;
59846;SDS011;45728;48.788;2.302;2023-09-18T08:34:00;7.13;;;4.00;;
59846;SDS011;45728;48.788;2.302;2023-09-18T08:36:26;7.32;;;4.70;;
59846;SDS011;45728;48.788;2.302;2023-09-18T08:38:56;8.23;;;4.00;;
59846;SDS011;45728;48.788;2.302;2023-09-18T08:41:22;6.63;;;3.78;;
59846;SDS011;45728;48.788;2.302;2023-09-18T08:43:53;6.05;;;3.65;;
59846;SDS011;45728;48.788;2.302;2023-09-18T08:46:29;10.18;;;4.07;;
59846;SDS011;45728;48.788;2.302;2023-09-18T08:48:59;8.32;;;4.15;;
59846;SDS011;45728;48.788;2.302;2023-09-18T08:51:26;8.40;;;4.25;;
59846;SDS011;45728;48.788;2.302;2023-09-18T08:53:54;11.40;;;4.00;;
59846;SDS011;45728;48.788;2.302;2023-09-18T08:56:21;7.55;;;4.03;;
59846;SDS011;45728;48.788;2.302;2023-09-18T08:58:48;5.55;;;3.65;;
59846;SDS011;45728;48.788;2.302;2023-09-18T09:01:14;8.27;;;3.88;;
59846;SDS011;45728;48.788;2.302;2023-09-18T09:03:41;4.95;;;3.42;;
59846;SDS011;45728;48.788;2.302;2023-09-18T09:06:11;6.45;;;3.63;;
59846;SDS011;45728;48.788;2.302;2023-09-18T09:08:38;7.25;;;3.63;;
59846;SDS011;45728;48.788;2.302;2023-09-18T09:11:04;9.48;;;6.03;;
59846;SDS011;45728;48.788;2.302;2023-09-18T09:13:31;8.95;;;3.95;;
59846;SDS011;45728;48.788;2.302;2023-09-18T09:15:57;8.35;;;3.30;;
59846;SDS011;45728;48.788;2.302;2023-09-18T09:18:25;6.65;;;3.72;;
59846;SDS011;45728;48.788;2.302;2023-09-18T09:20:56;8.05;;;3.60;;
59846;SDS011;45728;48.788;2.302;2023-09-18T09:26:19;8.20;;;3.28;;
59846;SDS011;45728;48.788;2.302;2023-09-18T09:28:46;6.38;;;3.55;;
59846;SDS011;45728;48.788;2.302;2023-09-18T09:31:23;6.75;;;2.90;;
59846;SDS011;45728;48.788;2.302;2023-09-18T09:33:50;6.28;;;3.00;;
59846;SDS011;45728;48.788;2.302;2023-09-18T09:36:21;4.75;;;2.50;;
59846;SDS011;45728;48.788;2.302;2023-09-18T09:38:48;5.07;;;2.70;;
59846;SDS011;45728;48.788;2.302;2023-09-18T09:41:19;3.95;;;2.78;;
59846;SDS011;45728;48.788;2.302;2023-09-18T09:43:46;5.18;;;2.65;;
59846;SDS011;45728;48.788;2.302;2023-09-18T09:46:16;5.03;;;2.72;;
59846;SDS011;45728;48.788;2.302;2023-09-18T09:48:59;4.13;;;2.60;;
59846;SDS011;45728;48.788;2.302;2023-09-18T09:51:27;5.72;;;3.47;;
59846;SDS011;45728;48.788;2.302;2023-09-18T09:53:55;7.45;;;4.72;;
59846;SDS011;45728;48.788;2.302;2023-09-18T09:56:38;4.70;;;2.90;;
59846;SDS011;45728;48.788;2.302;2023-09-18T09:59:14;4.70;;;2.95;;
59846;SDS011;45728;48.788;2.302;2023-09-18T10:01:40;6.97;;;3.00;;
59846;SDS011;45728;48.788;2.302;2023-09-18T10:04:11;6.65;;;2.80;;
59846;SDS011;45728;48.788;2.302;2023-09-18T10:06:47;3.00;;;2.40;;
59846;SDS011;45728;48.788;2.302;2023-09-18T10:09:17;7.97;;;3.35;;
59846;SDS011;45728;48.788;2.302;2023-09-18T10:11:45;7.13;;;3.15;;
59846;SDS011;45728;48.788;2.302;2023-09-18T10:14:19;7.32;;;2.92;;
59846;SDS011;45728;48.788;2.302;2023-09-18T10:16:51;3.75;;;2.88;;
59846;SDS011;45728;48.788;2.302;2023-09-18T10:22:37;5.35;;;2.65;;
59846;SDS011;45728;48.788;2.302;2023-09-18T10:27:42;5.20;;;2.45;;
59846;SDS011;45728;48.788;2.302;2023-09-18T10:30:15;3.45;;;2.17;;
59846;SDS011;45728;48.788;2.302;2023-09-18T10:32:45;3.90;;;2.30;;
59846;SDS011;45728;48.788;2.302;2023-09-18T10:35:13;4.18;;;2.05;;
59846;SDS011;45728;48.788;2.302;2023-09-18T10:37:43;3.53;;;2.28;;
59846;SDS011;45728;48.788;2.302;2023-09-18T10:40:11;3.00;;;2.05;;
59846;SDS011;45728;48.788;2.302;2023-09-18T10:42:38;3.30;;;2.10;;
59846;SDS011;45728;48.788;2.302;2023-09-18T10:45:06;4.68;;;2.58;;
59846;SDS011;45728;48.788;2.302;2023-09-18T10:47:37;2.83;;;2.13;;
59846;SDS011;45728;48.788;2.302;2023-09-18T10:50:04;4.25;;;2.00;;
59846;SDS011;45728;48.788;2.302;2023-09-18T10:52:34;3.72;;;2.25;;
59846;SDS011;45728;48.788;2.302;2023-09-18T10:55:01;3.27;;;2.23;;
59846;SDS011;45728;48.788;2.302;2023-09-18T10:57:36;5.10;;;2.17;;
59846;SDS011;45728;48.788;2.302;2023-09-18T11:00:03;3.72;;;2.17;;
59846;SDS011;45728;48.788;2.302;2023-09-18T11:02:41;4.63;;;2.25;;
59846;SDS011;45728;48.788;2.302;2023-09-18T11:05:08;4.03;;;2.33;;
59846;SDS011;45728;48.788;2.302;2023-09-18T11:07:34;3.85;;;2.42;;
59846;SDS011;45728;48.788;2.302;2023-09-18T11:10:01;4.80;;;2.83;;
59846;SDS011;45728;48.788;2.302;2023-09-18T11:12:52;4.13;;;2.25;;
59846;SDS011;45728;48.788;2.302;2023-09-18T11:15:25;3.55;;;2.33;;
59846;SDS011;45728;48.788;2.302;2023-09-18T11:17:59;3.17;;;2.20;;
59846;SDS011;45728;48.788;2.302;2023-09-18T11:20:28;3.70;;;2.30;;
59846;SDS011;45728;48.788;2.302;2023-09-18T11:28:00;3.70;;;2.30;;
59846;SDS011;45728;48.788;2.302;2023-09-18T11:30:28;4.53;;;2.63;;
59846;SDS011;45728;48.788;2.302;2023-09-18T11:32:55;3.78;;;2.10;;
59846;SDS011;45728;48.788;2.302;2023-09-18T11:35:21;4.10;;;2.08;;
59846;SDS011;45728;48.788;2.302;2023-09-18T11:37:52;5.38;;;2.05;;
59846;SDS011;45728;48.788;2.302;2023-09-18T11:40:31;2.50;;;2.05;;
59846;SDS011;45728;48.788;2.302;2023-09-18T11:43:21;2.63;;;2.13;;
59846;SDS011;45728;48.788;2.302;2023-09-18T11:45:58;4.85;;;2.22;;
59846;SDS011;45728;48.788;2.302;2023-09-18T11:48:27;3.40;;;2.20;;
59846;SDS011;45728;48.788;2.302;2023-09-18T11:50:57;3.92;;;2.00;;
59846;SDS011;45728;48.788;2.302;2023-09-18T11:53:24;4.10;;;2.20;;
59846;SDS011;45728;48.788;2.302;2023-09-18T11:55:53;2.33;;;2.00;;
59846;SDS011;45728;48.788;2.302;2023-09-18T11:58:19;5.10;;;2.08;;
59846;SDS011;45728;48.788;2.302;2023-09-18T12:00:49;2.05;;;1.77;;
59846;SDS011;45728;48.788;2.302;2023-09-18T12:03:16;9.23;;;2.30;;
59846;SDS011;45728;48.788;2.302;2023-09-18T12:05:56;4.95;;;2.22;;
59846;SDS011;45728;48.788;2.302;2023-09-18T12:08:24;5.47;;;2.10;;
59846;SDS011;45728;48.788;2.302;2023-09-18T12:10:56;2.58;;;1.98;;
59846;SDS011;45728;48.788;2.302;2023-09-18T12:13:26;2.53;;;2.00;;
59846;SDS011;45728;48.788;2.302;2023-09-18T12:15:59;4.57;;;2.33;;
59846;SDS011;45728;48.788;2.302;2023-09-18T12:18:31;5.05;;;2.35;;
59846;SDS011;45728;48.788;2.302;2023-09-18T12:21:01;2.20;;;2.00;;
59846;SDS011;45728;48.788;2.302;2023-09-18T12:23:36;3.30;;;1.77;;
59846;SDS011;45728;48.788;2.302;2023-09-18T12:26:04;3.40;;;1.70;;
59846;SDS011;45728;48.788;2.302;2023-09-18T12:28:35;5.18;;;1.90;;
59846;SDS011;45728;48.788;2.302;2023-09-18T12:31:02;3.05;;;2.10;;
59846;SDS011;45728;48.788;2.302;2023-09-18T12:33:35;3.13;;;1.83;;
59846;SDS011;45728;48.788;2.302;2023-09-18T12:36:02;2.70;;;1.80;;
59846;SDS011;45728;48.788;2.302;2023-09-18T12:38:30;2.72;;;1.75;;
59846;SDS011;45728;48.788;2.302;2023-09-18T12:40:57;3.40;;;1.83;;
59846;SDS011;45728;48.788;2.302;2023-09-18T12:43:35;5.18;;;2.38;;
59846;SDS011;45728;48.788;2.302;2023-09-18T12:46:04;11.70;;;2.72;;
59846;SDS011;45728;48.788;2.302;2023-09-18T12:48:31;6.20;;;2.60;;
59846;SDS011;45728;48.788;2.302;2023-09-18T12:51:06;2.85;;;2.00;;
59846;SDS011;45728;48.788;2.302;2023-09-18T12:53:33;4.88;;;2.13;;
59846;SDS011;45728;48.788;2.302;2023-09-18T12:58:33;5.18;;;2.50;;
59846;SDS011;45728;48.788;2.302;2023-09-18T13:01:03;4.38;;;2.30;;
59846;SDS011;45728;48.788;2.302;2023-09-18T13:03:41;2.45;;;2.20;;
59846;SDS011;45728;48.788;2.302;2023-09-18T13:06:09;2.70;;;1.98;;
59846;SDS011;45728;48.788;2.302;2023-09-18T13:08:36;3.00;;;2.28;;
59846;SDS011;45728;48.788;2.302;2023-09-18T13:11:03;3.50;;;1.85;;
59846;SDS011;45728;48.788;2.302;2023-09-18T13:13:29;4.03;;;2.28;;
59846;SDS011;45728;48.788;2.302;2023-09-18T13:15:59;4.18;;;2.50;;
59846;SDS011;45728;48.788;2.302;2023-09-18T13:18:26;5.38;;;2.28;;
59846;SDS011;45728;48.788;2.302;2023-09-18T13:20:52;3.70;;;2.17;;
59846;SDS011;45728;48.788;2.302;2023-09-18T13:23:19;3.47;;;2.50;;
59846;SDS011;45728;48.788;2.302;2023-09-18T13:25:46;6.65;;;2.10;;
59846;SDS011;45728;48.788;2.302;2023-09-18T13:28:13;2.20;;;1.83;;
59846;SDS011;45728;48.788;2.302;2023-09-18T13:30:40;2.67;;;1.88;;
59846;SDS011;45728;48.788;2.302;2023-09-18T13:33:11;4.60;;;1.90;;
59846;SDS011;45728;48.788;2.302;2023-09-18T13:35:39;3.13;;;2.33;;
59846;SDS011;45728;48.788;2.302;2023-09-18T13:38:07;3.47;;;1.90;;
59846;SDS011;45728;48.788;2.302;2023-09-18T13:40:34;2.80;;;1.73;;
59846;SDS011;45728;48.788;2.302;2023-09-18T13:43:04;1.85;;;1.48;;
59846;SDS011;45728;48.788;2.302;2023-09-18T13:45:31;2.60;;;1.58;;
59846;SDS011;45728;48.788;2.302;2023-09-18T13:47:57;2.45;;;1.55;;
59846;SDS011;45728;48.788;2.302;2023-09-18T13:50:24;4.35;;;1.85;;
59846;SDS011;45728;48.788;2.302;2023-09-18T13:52:50;1.55;;;1.30;;
59846;SDS011;45728;48.788;2.302;2023-09-18T13:55:16;3.58;;;1.58;;
59846;SDS011;45728;48.788;2.302;2023-09-18T13:57:42;2.08;;;1.40;;
59846;SDS011;45728;48.788;2.302;2023-09-18T14:00:09;2.25;;;1.30;;
59846;SDS011;45728;48.788;2.302;2023-09-18T14:02:37;3.78;;;1.50;;
59846;SDS011;45728;48.788;2.302;2023-09-18T14:05:05;2.13;;;1.45;;
59846;SDS011;45728;48.788;2.302;2023-09-18T14:07:32;2.03;;;1.30;;
59846;SDS011;45728;48.788;2.302;2023-09-18T14:09:58;1.98;;;1.40;;
59846;SDS011;45728;48.788;2.302;2023-09-18T14:12:24;3.55;;;1.60;;
59846;SDS011;45728;48.788;2.302;2023-09-18T14:14:50;1.40;;;1.30;;
59846;SDS011;45728;48.788;2.302;2023-09-18T14:17:16;1.90;;;1.45;;
59846;SDS011;45728;48.788;2.302;2023-09-18T14:19:47;2.30;;;1.48;;
59846;SDS011;45728;48.788;2.302;2023-09-18T14:22:13;2.03;;;1.30;;
59846;SDS011;45728;48.788;2.302;2023-09-18T14:24:40;2.53;;;1.33;;
59846;SDS011;45728;48.788;2.302;2023-09-18T14:27:06;2.00;;;1.65;;
59846;SDS011;45728;48.788;2.302;2023-09-18T14:29:33;3.60;;;1.40;;
59846;SDS011;45728;48.788;2.302;2023-09-18T14:31:59;2.50;;;1.30;;
59846;SDS011;45728;48.788;2.302;2023-09-18T14:34:26;3.92;;;1.65;;
59846;SDS011;45728;48.788;2.302;2023-09-18T14:36:52;2.55;;;1.55;;
59846;SDS011;45728;48.788;2.302;2023-09-18T14:39:37;2.08;;;1.40;;
59846;SDS011;45728;48.788;2.302;2023-09-18T14:42:03;4.18;;;1.50;;
59846;SDS011;45728;48.788;2.302;2023-09-18T14:44:30;1.73;;;1.30;;
59846;SDS011;45728;48.788;2.302;2023-09-18T14:46:56;2.38;;;1.45;;
59846;SDS011;45728;48.788;2.302;2023-09-18T14:49:23;1.63;;;1.20;;
59846;SDS011;45728;48.788;2.302;2023-09-18T14:51:49;1.63;;;1.20;;
59846;SDS011;45728;48.788;2.302;2023-09-18T14:54:18;2.53;;;1.48;;
59846;SDS011;45728;48.788;2.302;2023-09-18T14:56:44;3.33;;;1.45;;
59846;SDS011;45728;48.788;2.302;2023-09-18T14:59:12;2.83;;;1.40;;
59846;SDS011;45728;48.788;2.302;2023-09-18T15:01:38;2.25;;;1.85;;
59846;SDS011;45728;48.788;2.302;2023-09-18T15:04:04;1.88;;;1.17;;
59846;SDS011;45728;48.788;2.302;2023-09-18T15:06:30;1.73;;;1.20;;
59846;SDS011;45728;48.788;2.302;2023-09-18T15:08:56;2.05;;;1.52;;
59846;SDS011;45728;48.788;2.302;2023-09-18T15:11:22;2.90;;;1.27;;